Time;durP1;ratioP1;P1;durP2;ratioP2;P2;SDS_P1;SDS_P2;PMS_P1;PMS_P2;Temp;Humidity;BMP_temperature;BMP_pressure;BME280_temperature;BME280_humidity;BME280_pressure;Samples;Min_cycle;Max_cycle;Signal;HPM_P1;HPM_P2
2023/07/06 00:00:51;;;;;;;4.80;3.00;;;17.70;99.90;;;;;;2701606;39;22291;31
2023/07/06 00:03:24;;;;;;;5.85;3.00;;;17.70;99.90;;;;;;2585155;54;20030;31
2023/07/06 00:05:58;;;;;;;4.90;2.85;;;17.70;99.90;;;;;;2584914;54;20026;31
2023/07/06 00:08:31;;;;;;;4.63;2.55;;;17.60;99.90;;;;;;2585152;54;21049;31
2023/07/06 00:11:04;;;;;;;6.30;3.40;;;17.60;99.90;;;;;;2585115;54;20882;31
2023/07/06 00:13:39;;;;;;;6.40;3.30;;;17.60;99.90;;;;;;2602923;47;20161;31
2023/07/06 00:16:16;;;;;;;8.85;3.47;;;17.50;99.90;;;;;;2585078;54;20037;31
2023/07/06 00:18:51;;;;;;;4.70;3.00;;;17.40;99.90;;;;;;2603491;47;20023;31
2023/07/06 00:21:24;;;;;;;4.97;2.57;;;17.50;99.90;;;;;;2585098;54;20381;31
2023/07/06 00:24:00;;;;;;;7.03;3.60;;;17.40;99.90;;;;;;2585132;54;21014;31
2023/07/06 00:26:33;;;;;;;7.88;4.38;;;17.40;99.90;;;;;;2585024;54;20041;31
2023/07/06 00:29:06;;;;;;;6.45;2.85;;;17.40;99.90;;;;;;2585315;54;20108;31
2023/07/06 00:31:51;;;;;;;6.37;3.20;;;17.30;99.90;;;;;;2585315;54;20033;31
2023/07/06 00:34:26;;;;;;;6.10;3.60;;;17.30;99.90;;;;;;2585013;54;20038;31
2023/07/06 00:37:02;;;;;;;5.90;3.05;;;17.30;99.90;;;;;;2585249;54;20942;31
2023/07/06 00:39:35;;;;;;;9.18;3.00;;;17.20;99.90;;;;;;2603331;47;21090;31
2023/07/06 00:42:16;;;;;;;6.25;3.50;;;17.20;99.90;;;;;;2602937;47;20801;31
2023/07/06 00:44:57;;;;;;;5.00;2.72;;;17.10;99.90;;;;;;2603449;47;20033;31
2023/07/06 00:47:38;;;;;;;6.45;2.95;;;17.10;99.90;;;;;;2585253;54;20034;31
2023/07/06 00:50:15;;;;;;;7.90;2.70;;;17.10;99.90;;;;;;2584930;54;20033;31
2023/07/06 00:52:51;;;;;;;7.88;3.50;;;17.00;99.90;;;;;;2586003;54;20808;31
2023/07/06 00:55:25;;;;;;;5.70;3.00;;;17.00;99.90;;;;;;2586206;54;22526;31
2023/07/06 00:58:02;;;;;;;5.97;2.97;;;16.90;99.90;;;;;;2585872;54;20945;31
2023/07/06 01:00:35;;;;;;;6.70;3.00;;;16.90;99.90;;;;;;2585728;54;20049;31
2023/07/06 01:03:13;;;;;;;5.28;2.88;;;16.90;99.90;;;;;;2585710;54;20907;31
2023/07/06 01:05:46;;;;;;;4.70;2.55;;;16.80;99.90;;;;;;2585811;54;20986;31
2023/07/06 01:08:21;;;;;;;7.10;2.90;;;16.80;99.90;;;;;;2603822;46;20116;31
2023/07/06 01:10:58;;;;;;;5.30;2.85;;;16.80;99.90;;;;;;2585912;54;20022;31
2023/07/06 01:13:33;;;;;;;3.83;2.47;;;16.80;99.90;;;;;;2585777;54;20799;31
2023/07/06 01:16:09;;;;;;;3.10;2.30;;;16.70;99.90;;;;;;2585968;54;20149;31
2023/07/06 01:18:47;;;;;;;6.38;3.08;;;16.70;99.90;;;;;;2586021;54;21154;31
2023/07/06 01:21:25;;;;;;;6.78;3.40;;;16.70;99.90;;;;;;2585634;54;20910;31
2023/07/06 01:24:20;;;;;;;3.70;2.20;;;16.60;99.90;;;;;;2585921;54;20137;31
2023/07/06 01:27:07;;;;;;;2.90;2.20;;;16.60;99.90;;;;;;2603906;46;20864;31
2023/07/06 01:29:45;;;;;;;;;;;16.50;99.90;;;;;;2684426;39;21062;31
2023/07/06 01:32:24;;;;;;;3.10;2.23;;;16.50;99.90;;;;;;2585686;54;20815;31
2023/07/06 01:35:01;;;;;;;4.55;2.33;;;16.40;99.90;;;;;;2585860;54;19941;31
2023/07/06 01:37:41;;;;;;;4.70;2.50;;;16.30;99.90;;;;;;2585806;54;20026;31
2023/07/06 01:40:15;;;;;;;5.95;2.70;;;16.30;99.90;;;;;;2604098;46;20810;31
2023/07/06 01:42:48;;;;;;;4.53;2.63;;;16.20;99.90;;;;;;2754738;31;22560;31
2023/07/06 01:45:22;;;;;;;5.10;3.17;;;16.10;99.90;;;;;;2683582;39;21057;31
2023/07/06 01:47:59;;;;;;;7.70;2.23;;;16.10;99.90;;;;;;2585623;54;20924;31
2023/07/06 01:50:38;;;;;;;4.35;3.10;;;16.00;99.90;;;;;;2585868;54;20944;31
2023/07/06 01:53:14;;;;;;;3.95;2.25;;;16.00;99.90;;;;;;2754466;31;20540;31
2023/07/06 01:55:53;;;;;;;4.20;2.60;;;15.90;99.90;;;;;;2585596;54;20871;31
2023/07/06 01:58:34;;;;;;;6.43;2.33;;;15.90;99.90;;;;;;2585614;54;21021;31
2023/07/06 02:01:12;;;;;;;3.45;2.00;;;15.90;99.90;;;;;;2585732;54;19997;31
2023/07/06 02:03:50;;;;;;;4.65;2.35;;;15.80;99.90;;;;;;2585750;54;20958;31
2023/07/06 02:06:25;;;;;;;3.92;2.22;;;15.70;99.90;;;;;;2585586;54;20151;31
2023/07/06 02:09:00;;;;;;;3.00;2.40;;;15.70;99.90;;;;;;2585833;54;20883;31
2023/07/06 02:11:35;;;;;;;8.85;3.15;;;15.70;99.90;;;;;;2585549;54;20929;31
2023/07/06 02:14:09;;;;;;;5.90;2.95;;;15.60;99.90;;;;;;2585640;54;20060;31
2023/07/06 02:16:42;;;;;;;4.70;2.40;;;15.50;99.90;;;;;;2585727;54;20058;31
2023/07/06 02:19:20;;;;;;;5.10;2.30;;;15.50;99.90;;;;;;2585687;54;20053;31
2023/07/06 02:21:55;;;;;;;5.30;2.80;;;15.40;99.90;;;;;;2604215;46;20940;31
2023/07/06 02:24:28;;;;;;;2.88;2.10;;;15.40;99.90;;;;;;2603713;46;20030;31
2023/07/06 02:27:02;;;;;;;3.75;2.40;;;15.40;99.90;;;;;;2585434;54;20790;31
2023/07/06 02:29:36;;;;;;;7.53;3.00;;;15.40;99.90;;;;;;2585117;54;20049;31
2023/07/06 02:32:08;;;;;;;4.78;2.92;;;15.30;99.90;;;;;;2585548;54;20026;31
2023/07/06 02:34:43;;;;;;;6.70;2.70;;;15.20;99.90;;;;;;2604361;46;21387;31
2023/07/06 02:37:18;;;;;;;5.53;2.50;;;15.20;99.90;;;;;;2585403;54;20883;31
2023/07/06 02:39:52;;;;;;;6.30;2.70;;;15.20;99.90;;;;;;2585405;54;20816;31
2023/07/06 02:42:27;;;;;;;6.40;2.92;;;15.10;99.90;;;;;;2604083;46;20026;31
2023/07/06 02:45:00;;;;;;;7.57;3.45;;;15.10;99.90;;;;;;2585162;54;20039;31
2023/07/06 02:47:33;;;;;;;5.75;2.55;;;15.10;99.90;;;;;;2604339;46;20055;31
2023/07/06 02:50:11;;;;;;;5.05;3.33;;;15.00;99.90;;;;;;2603105;46;20996;31
2023/07/06 02:52:49;;;;;;;4.33;2.90;;;15.10;99.90;;;;;;2584481;54;20116;31
2023/07/06 02:55:26;;;;;;;4.83;2.33;;;15.10;99.90;;;;;;2585447;54;20089;31
2023/07/06 02:58:02;;;;;;;5.35;2.80;;;15.10;99.90;;;;;;2585624;54;20929;31
2023/07/06 03:00:40;;;;;;;4.60;2.80;;;15.10;99.90;;;;;;2585620;54;20788;31
2023/07/06 03:03:16;;;;;;;6.00;3.00;;;15.10;99.90;;;;;;2585543;54;20033;31
2023/07/06 03:05:50;;;;;;;4.10;2.80;;;15.10;99.90;;;;;;2585474;54;20992;31
2023/07/06 03:08:31;;;;;;;3.60;2.60;;;15.10;99.90;;;;;;2603856;46;21293;31
2023/07/06 03:11:04;;;;;;;3.97;2.70;;;15.20;99.90;;;;;;2585365;54;19989;31
2023/07/06 03:13:43;;;;;;;4.70;2.70;;;15.20;99.90;;;;;;2603165;46;20996;31
2023/07/06 03:16:21;;;;;;;6.70;3.67;;;15.20;99.90;;;;;;2585482;54;19934;31
2023/07/06 03:18:57;;;;;;;4.10;3.05;;;15.20;99.90;;;;;;2585417;54;21209;31
2023/07/06 03:21:32;;;;;;;8.50;2.60;;;15.20;99.90;;;;;;2584531;54;20034;31
2023/07/06 03:24:11;;;;;;;;;;;15.10;99.90;;;;;;2585770;54;20051;31
2023/07/06 03:26:49;;;;;;;4.20;2.90;;;15.20;99.90;;;;;;2585358;54;20905;31
2023/07/06 03:31:58;;;;;;;4.75;3.10;;;15.30;99.90;;;;;;2585664;54;20026;31
2023/07/06 03:34:38;;;;;;;7.80;4.25;;;15.40;99.90;;;;;;2585198;54;20803;31
2023/07/06 03:37:16;;;;;;;6.88;3.40;;;15.50;99.90;;;;;;2585559;54;20076;31
2023/07/06 03:39:55;;;;;;;3.87;2.60;;;15.50;99.90;;;;;;2585193;54;20871;31
2023/07/06 03:42:29;;;;;;;4.00;3.00;;;15.50;99.90;;;;;;2603391;46;19993;31
2023/07/06 03:45:05;;;;;;;6.45;2.85;;;15.60;99.90;;;;;;2584602;54;20976;31
2023/07/06 03:47:42;;;;;;;6.60;2.90;;;15.70;99.90;;;;;;2585490;54;20894;31
2023/07/06 03:50:20;;;;;;;5.45;3.35;;;15.90;99.90;;;;;;2584710;54;21169;31
2023/07/06 03:52:58;;;;;;;5.00;3.00;;;15.90;99.90;;;;;;2585104;54;20863;31
2023/07/06 03:58:10;;;;;;;6.70;3.25;;;16.00;99.90;;;;;;2585588;54;20991;31
2023/07/06 04:00:47;;;;;;;6.70;3.30;;;15.90;99.90;;;;;;2585172;54;20913;31
2023/07/06 04:03:23;;;;;;;6.80;3.40;;;16.00;99.90;;;;;;2585174;54;20019;31
2023/07/06 04:05:59;;;;;;;8.90;3.67;;;16.00;99.90;;;;;;2585091;54;20837;31
2023/07/06 04:08:36;;;;;;;8.80;3.75;;;16.00;99.90;;;;;;2682890;39;20500;31
2023/07/06 04:11:17;;;;;;;5.30;3.10;;;16.10;99.90;;;;;;2585146;54;21076;31
2023/07/06 04:13:57;;;;;;;8.37;3.73;;;16.10;99.90;;;;;;2585259;54;20029;31
2023/07/06 04:16:41;;;;;;;7.80;3.50;;;16.30;99.90;;;;;;2585408;54;20238;31
2023/07/06 04:19:16;;;;;;;5.15;3.35;;;16.40;99.90;;;;;;2603766;47;20241;31
2023/07/06 04:21:53;;;;;;;5.78;3.67;;;16.60;99.90;;;;;;2585400;54;20904;31
2023/07/06 04:24:31;;;;;;;5.63;3.55;;;16.70;99.90;;;;;;2682303;39;22333;31
2023/07/06 04:27:07;;;;;;;5.20;3.38;;;16.70;99.90;;;;;;2585685;54;20044;31
2023/07/06 04:29:46;;;;;;;5.70;3.45;;;16.80;99.90;;;;;;2585981;54;20030;31
2023/07/06 04:32:23;;;;;;;7.65;3.40;;;16.80;99.90;;;;;;2586156;54;20991;31
2023/07/06 04:35:00;;;;;;;8.00;3.50;;;16.80;99.90;;;;;;2585963;54;20972;31
2023/07/06 04:37:38;;;;;;;6.05;3.00;;;16.80;99.90;;;;;;2586094;54;20729;31
2023/07/06 04:40:13;;;;;;;6.30;3.85;;;16.80;99.90;;;;;;2585898;54;20050;31
2023/07/06 04:42:50;;;;;;;6.40;3.40;;;16.80;99.90;;;;;;2585187;54;19935;31
2023/07/06 04:45:29;;;;;;;7.68;3.60;;;16.70;99.90;;;;;;2586005;54;20932;31
2023/07/06 04:50:42;;;;;;;5.80;3.47;;;16.80;99.90;;;;;;2586173;54;20148;31
2023/07/06 04:53:17;;;;;;;7.75;4.18;;;16.80;99.90;;;;;;2585875;54;21259;31
2023/07/06 04:55:59;;;;;;;7.00;3.65;;;16.80;99.90;;;;;;2585556;54;20825;31
2023/07/06 04:58:33;;;;;;;7.23;3.90;;;16.80;99.90;;;;;;2585879;54;20141;31
2023/07/06 05:01:07;;;;;;;7.00;4.25;;;16.80;99.90;;;;;;2585778;54;21006;31
2023/07/06 05:03:44;;;;;;;9.00;4.78;;;16.90;99.90;;;;;;2585944;54;20031;31
2023/07/06 05:06:24;;;;;;;9.15;4.15;;;16.90;99.90;;;;;;2585665;54;20090;31
2023/07/06 05:09:03;;;;;;;6.57;4.13;;;16.90;99.90;;;;;;2604419;46;22518;31
2023/07/06 05:11:41;;;;;;;10.52;3.83;;;16.90;99.90;;;;;;2585776;54;20022;31
2023/07/06 05:14:20;;;;;;;9.40;5.05;;;16.90;99.90;;;;;;2584974;54;20929;31
2023/07/06 05:16:54;;;;;;;8.18;5.53;;;16.90;99.90;;;;;;2595251;46;20072;31
2023/07/06 05:19:29;;;;;;;8.20;4.63;;;16.90;99.90;;;;;;2586137;54;20988;31
2023/07/06 05:22:08;;;;;;;7.10;4.35;;;17.00;99.90;;;;;;2604631;46;22412;31
2023/07/06 05:24:42;;;;;;;5.30;3.90;;;17.00;99.90;;;;;;2585732;54;19962;31
2023/07/06 05:27:17;;;;;;;10.32;4.25;;;17.10;99.90;;;;;;2585962;54;20929;31
2023/07/06 05:29:52;;;;;;;10.10;3.95;;;17.10;99.90;;;;;;2604099;46;20802;31
2023/07/06 05:32:29;;;;;;;8.02;5.13;;;17.20;99.90;;;;;;2585783;54;20090;31
2023/07/06 05:35:08;;;;;;;8.00;4.30;;;17.30;99.90;;;;;;2585657;54;20930;31
2023/07/06 05:37:43;;;;;;;8.75;5.60;;;17.30;99.90;;;;;;2702239;39;22468;31
2023/07/06 05:40:21;;;;;;;14.10;6.25;;;17.30;99.90;;;;;;2604092;46;20929;31
2023/07/06 05:42:59;;;;;;;9.40;5.50;;;17.30;99.90;;;;;;2604193;46;20045;31
2023/07/06 05:45:33;;;;;;;11.95;5.65;;;17.30;99.90;;;;;;2585784;54;20035;31
2023/07/06 05:48:11;;;;;;;12.25;4.82;;;17.40;99.90;;;;;;2604294;46;22436;31
2023/07/06 05:50:50;;;;;;;9.85;4.60;;;17.40;99.90;;;;;;2586004;54;22401;31
2023/07/06 05:53:27;;;;;;;7.50;3.95;;;17.40;99.90;;;;;;2754342;31;21744;31
2023/07/06 05:56:08;;;;;;;10.23;4.57;;;17.50;99.90;;;;;;2585562;54;20050;31
2023/07/06 05:58:44;;;;;;;8.50;3.55;;;17.50;99.90;;;;;;2604306;46;21100;31
2023/07/06 06:01:22;;;;;;;8.10;4.20;;;17.40;99.90;;;;;;2585734;54;20700;31
2023/07/06 06:04:01;;;;;;;9.98;4.22;;;17.50;99.90;;;;;;2585809;54;21107;31
2023/07/06 06:06:49;;;;;;;6.00;3.70;;;17.50;99.90;;;;;;2584665;54;20034;31
2023/07/06 06:09:27;;;;;;;6.50;3.80;;;17.50;99.90;;;;;;2586011;54;20089;31
2023/07/06 06:12:06;;;;;;;12.38;4.07;;;17.60;99.90;;;;;;2603946;46;20085;31
2023/07/06 06:14:43;;;;;;;6.20;3.40;;;17.70;99.90;;;;;;2585688;54;20030;31
2023/07/06 06:17:23;;;;;;;6.75;3.35;;;17.70;99.90;;;;;;2585837;54;20023;31
2023/07/06 06:20:00;;;;;;;6.00;3.50;;;17.80;99.90;;;;;;2604142;46;20948;31
2023/07/06 06:22:36;;;;;;;7.60;3.30;;;17.90;99.90;;;;;;2745785;31;20031;31
2023/07/06 06:25:16;;;;;;;8.13;3.45;;;18.00;99.90;;;;;;2604245;46;19934;31
2023/07/06 06:27:55;;;;;;;6.50;3.35;;;18.10;99.90;;;;;;2585515;54;21012;31
2023/07/06 06:30:31;;;;;;;10.02;3.63;;;18.40;99.90;;;;;;2585507;54;19934;31
2023/07/06 06:33:09;;;;;;;;;;;18.50;99.90;;;;;;2584935;54;20038;31
2023/07/06 06:36:03;;;;;;;6.30;3.75;;;18.60;99.90;;;;;;2585494;54;19934;31
2023/07/06 06:38:42;;;;;;;5.30;3.15;;;18.70;99.90;;;;;;2603668;46;20030;31
2023/07/06 06:41:23;;;;;;;5.30;3.80;;;18.80;99.90;;;;;;2585305;54;20034;31
2023/07/06 06:44:14;;;;;;;3.92;3.00;;;19.00;99.90;;;;;;2588998;46;21436;31
2023/07/06 06:46:48;;;;;;;8.15;3.05;;;19.00;99.90;;;;;;2599334;46;21222;31
2023/07/06 06:49:28;;;;;;;11.05;3.75;;;19.10;99.90;;;;;;2603628;46;20828;31
2023/07/06 06:52:12;;;;;;;6.97;3.43;;;19.30;99.90;;;;;;2584368;54;20044;31
2023/07/06 06:54:52;;;;;;;4.88;3.10;;;19.70;99.90;;;;;;2585506;54;20024;31
2023/07/06 06:57:35;;;;;;;6.07;2.90;;;20.20;99.90;;;;;;2585571;54;20028;31
2023/07/06 07:00:21;;;;;;;6.50;2.93;;;20.80;99.90;;;;;;2585337;54;20938;31
2023/07/06 07:03:02;;;;;;;8.23;3.33;;;21.40;99.90;;;;;;2585237;54;20076;31
2023/07/06 07:05:41;;;;;;;6.25;3.10;;;21.80;99.90;;;;;;2584354;54;20780;31
2023/07/06 07:08:21;;;;;;;4.57;2.57;;;22.30;99.90;;;;;;2585236;54;20061;31
2023/07/06 07:10:59;;;;;;;4.90;2.85;;;22.70;99.90;;;;;;2603652;46;20053;31
2023/07/06 07:13:55;;;;;;;6.10;2.90;;;23.20;99.90;;;;;;2585380;54;20917;31
2023/07/06 07:16:34;;;;;;;5.35;2.95;;;23.60;99.90;;;;;;2603199;46;20848;31
2023/07/06 07:19:11;;;;;;;8.00;2.90;;;24.00;99.90;;;;;;2585315;54;20034;31
2023/07/06 07:21:49;;;;;;;4.85;3.00;;;24.40;99.90;;;;;;2585296;54;20027;31
2023/07/06 07:24:25;;;;;;;4.80;2.60;;;24.60;99.90;;;;;;2585310;54;20027;31
2023/07/06 07:27:08;;;;;;;6.07;2.90;;;24.90;99.90;;;;;;2585308;54;20975;31
2023/07/06 07:29:46;;;;;;;5.15;2.83;;;25.10;99.90;;;;;;2585391;54;20030;31
2023/07/06 07:32:34;;;;;;;4.40;2.80;;;25.30;99.90;;;;;;2585303;54;20026;31
2023/07/06 07:35:41;;;;;;;7.30;2.50;;;25.50;99.90;;;;;;2683283;39;21109;31
2023/07/06 07:38:18;;;;;;;5.20;2.47;;;25.80;99.90;;;;;;2584832;54;20242;31
2023/07/06 07:40:57;;;;;;;6.65;2.70;;;25.90;99.90;;;;;;2585198;54;20093;31
2023/07/06 07:43:36;;;;;;;3.95;2.40;;;26.10;99.90;;;;;;2603671;46;20037;31
2023/07/06 07:46:16;;;;;;;8.02;2.88;;;26.30;99.90;;;;;;2585130;54;19935;31
2023/07/06 07:49:01;;;;;;;5.28;2.80;;;26.60;99.90;;;;;;2592072;46;20889;31
2023/07/06 07:51:44;;;;;;;5.50;2.50;;;26.80;99.90;;;;;;2584777;54;20027;31
2023/07/06 07:54:25;;;;;;;12.85;3.22;;;27.00;99.90;;;;;;2584831;54;20983;31
2023/07/06 07:57:06;;;;;;;4.32;2.38;;;27.20;99.00;;;;;;2603176;47;20972;31
2023/07/06 07:59:46;;;;;;;5.22;2.80;;;27.20;98.30;;;;;;2585056;54;20036;31
2023/07/06 08:02:23;;;;;;;6.78;2.58;;;27.40;97.00;;;;;;2585556;54;19935;31
2023/07/06 08:05:13;;;;;;;5.70;2.50;;;27.50;95.30;;;;;;2584804;54;20032;31
2023/07/06 08:07:51;;;;;;;6.85;2.50;;;27.50;93.60;;;;;;2585675;54;20061;31
2023/07/06 08:10:28;;;;;;;4.95;2.10;;;27.50;94.20;;;;;;2585560;54;20965;31
2023/07/06 08:13:10;;;;;;;5.13;2.37;;;27.50;94.60;;;;;;2585452;54;20840;31
2023/07/06 08:15:50;;;;;;;5.05;1.88;;;27.60;91.10;;;;;;2585688;54;20026;31
2023/07/06 08:18:28;;;;;;;4.32;2.05;;;27.80;91.30;;;;;;2585358;54;20890;31
2023/07/06 08:21:10;;;;;;;6.63;2.20;;;27.80;91.90;;;;;;2585664;54;20820;31
2023/07/06 08:24:11;;;;;;;5.30;2.40;;;28.00;91.00;;;;;;2586015;54;21887;31
2023/07/06 08:26:49;;;;;;;5.85;2.25;;;28.20;90.80;;;;;;2585580;54;20034;31
2023/07/06 08:29:26;;;;;;;9.00;2.65;;;28.50;87.70;;;;;;2585409;54;20027;31
2023/07/06 08:32:03;;;;;;;4.93;2.40;;;28.70;86.70;;;;;;2604123;46;20932;31
2023/07/06 08:34:41;;;;;;;5.45;2.20;;;28.70;89.00;;;;;;2585778;54;20022;31
2023/07/06 08:37:21;;;;;;;4.60;2.28;;;28.80;88.00;;;;;;2585494;54;20030;31
2023/07/06 08:39:58;;;;;;;5.40;2.10;;;28.90;84.70;;;;;;2604426;46;20141;31
2023/07/06 08:42:34;;;;;;;5.25;2.10;;;28.90;85.50;;;;;;2604313;46;20918;31
2023/07/06 08:45:16;;;;;;;3.90;1.70;;;28.90;83.70;;;;;;2585525;54;20921;31
2023/07/06 08:47:52;;;;;;;6.57;1.87;;;29.00;85.90;;;;;;2585373;54;20030;31
2023/07/06 08:50:31;;;;;;;4.40;1.80;;;29.10;84.40;;;;;;2585984;54;22108;31
2023/07/06 08:53:14;;;;;;;5.35;1.95;;;29.10;80.80;;;;;;2593056;46;20042;31
2023/07/06 08:55:57;;;;;;;3.08;1.75;;;29.10;79.20;;;;;;2585483;54;20156;31
2023/07/06 08:58:33;;;;;;;3.13;1.95;;;29.20;79.60;;;;;;2585648;54;20880;31
2023/07/06 09:01:17;;;;;;;5.07;2.08;;;29.30;81.00;;;;;;2585418;54;20033;31
2023/07/06 09:04:10;;;;;;;3.70;2.00;;;29.40;80.40;;;;;;2585271;54;20923;31
2023/07/06 09:06:48;;;;;;;5.60;2.20;;;29.50;81.00;;;;;;2585376;54;20057;31
2023/07/06 09:09:31;;;;;;;2.75;1.80;;;29.50;81.30;;;;;;2585295;54;20941;31
2023/07/06 09:12:13;;;;;;;4.90;2.33;;;29.50;77.40;;;;;;2585222;54;20811;31
2023/07/06 09:14:52;;;;;;;4.10;2.22;;;29.50;81.20;;;;;;2585181;54;20643;31
2023/07/06 09:17:31;;;;;;;3.70;2.20;;;29.70;78.70;;;;;;2585602;54;19935;31
2023/07/06 09:22:44;;;;;;;5.40;2.50;;;29.70;78.80;;;;;;2604001;46;21278;31
2023/07/06 09:25:24;;;;;;;12.48;2.72;;;29.80;76.90;;;;;;2585519;54;20057;31
2023/07/06 09:28:03;;;;;;;5.85;2.53;;;30.00;79.70;;;;;;2584573;54;20711;31
2023/07/06 09:30:42;;;;;;;5.20;2.53;;;30.00;77.10;;;;;;2584698;54;21304;31
2023/07/06 09:33:24;;;;;;;3.53;2.10;;;29.90;79.50;;;;;;2585341;54;20978;31
2023/07/06 09:36:02;;;;;;;6.18;2.40;;;30.00;76.60;;;;;;2603659;46;20787;31
2023/07/06 09:38:43;;;;;;;5.10;2.45;;;30.00;76.10;;;;;;2585302;54;21013;31
2023/07/06 09:41:19;;;;;;;4.97;2.03;;;29.90;74.80;;;;;;2603735;46;20030;31
2023/07/06 09:44:03;;;;;;;4.40;2.60;;;29.80;75.80;;;;;;2604018;46;20022;31
2023/07/06 09:46:37;;;;;;;5.35;2.50;;;29.60;78.90;;;;;;2585397;54;20790;31
2023/07/06 09:49:16;;;;;;;6.40;2.30;;;29.50;78.00;;;;;;2603823;46;22481;31
2023/07/06 09:51:53;;;;;;;4.75;1.80;;;29.60;79.50;;;;;;2584485;54;20041;31
2023/07/06 09:54:38;;;;;;;8.90;2.60;;;29.70;79.30;;;;;;2585388;54;20030;31
2023/07/06 09:57:18;;;;;;;3.63;2.22;;;29.80;76.50;;;;;;2585435;54;20051;31
2023/07/06 10:02:49;;;;;;;9.57;1.85;;;30.10;73.10;;;;;;2602981;46;21043;31
2023/07/06 10:05:33;;;;;;;6.00;1.98;;;30.20;76.10;;;;;;2585134;54;20921;31
2023/07/06 10:08:11;;;;;;;4.53;1.80;;;30.20;71.90;;;;;;2585259;54;20026;31
2023/07/06 10:10:53;;;;;;;4.10;2.03;;;30.30;74.00;;;;;;2603484;46;21009;31
2023/07/06 10:13:28;;;;;;;3.10;1.73;;;30.40;74.10;;;;;;2585058;54;20776;31
2023/07/06 10:16:11;;;;;;;3.30;2.00;;;30.40;73.30;;;;;;2585270;54;20916;31
2023/07/06 10:18:53;;;;;;;5.20;2.20;;;30.60;75.00;;;;;;2585303;54;20974;31
2023/07/06 10:21:28;;;;;;;8.38;2.38;;;30.80;72.60;;;;;;2585021;54;20053;31
2023/07/06 10:24:07;;;;;;;3.17;2.00;;;30.70;72.30;;;;;;2584433;54;20943;31
2023/07/06 10:26:44;;;;;;;4.45;1.90;;;30.30;71.00;;;;;;2584949;54;20898;31
2023/07/06 10:29:23;;;;;;;2.90;1.50;;;29.80;71.80;;;;;;2585292;54;20031;31
2023/07/06 10:31:58;;;;;;;4.60;2.10;;;29.80;75.20;;;;;;2585304;54;20042;31
2023/07/06 10:34:43;;;;;;;5.53;2.33;;;29.60;70.50;;;;;;2597475;46;20095;31
2023/07/06 10:37:20;;;;;;;3.37;2.10;;;29.30;70.20;;;;;;2585463;54;20928;31
2023/07/06 10:40:19;;;;;;;5.70;1.70;;;29.00;73.70;;;;;;2585274;54;20372;31
2023/07/06 10:43:14;;;;;;;4.55;1.58;;;28.70;71.30;;;;;;2585474;54;20825;31
2023/07/06 10:45:51;;;;;;;5.50;2.10;;;28.70;72.50;;;;;;2603799;46;20102;31
2023/07/06 10:48:34;;;;;;;4.55;2.13;;;28.90;73.90;;;;;;2585016;54;20792;31
2023/07/06 10:51:26;;;;;;;2.70;1.47;;;28.90;70.60;;;;;;2585323;54;20030;31
2023/07/06 10:54:11;;;;;;;6.22;2.10;;;28.80;71.90;;;;;;2585026;54;20051;31
2023/07/06 10:56:51;;;;;;;5.80;1.80;;;28.70;74.30;;;;;;2585286;54;20085;31
2023/07/06 10:59:37;;;;;;;3.17;1.70;;;28.60;73.70;;;;;;2585037;54;20123;31
2023/07/06 11:02:22;;;;;;;4.25;1.80;;;28.80;72.70;;;;;;2603683;46;20905;31
2023/07/06 11:05:00;;;;;;;4.13;1.58;;;28.70;70.60;;;;;;2603324;46;20052;31
2023/07/06 11:07:45;;;;;;;5.90;1.80;;;28.60;72.00;;;;;;2603558;46;21194;31
2023/07/06 11:10:51;;;;;;;8.02;2.00;;;28.50;73.00;;;;;;2585193;54;20050;31
2023/07/06 11:16:06;;;;;;;5.10;2.10;;;28.80;75.00;;;;;;2603619;46;20331;31
2023/07/06 11:18:48;;;;;;;4.37;1.73;;;28.80;72.20;;;;;;2603721;46;20045;31
2023/07/06 11:21:30;;;;;;;3.25;1.40;;;29.00;73.30;;;;;;2584784;54;20026;31
2023/07/06 11:24:06;;;;;;;2.73;1.60;;;29.20;75.10;;;;;;2682838;39;21652;31
2023/07/06 11:26:50;;;;;;;5.10;1.60;;;29.20;71.80;;;;;;2585141;54;21201;31
2023/07/06 11:29:31;;;;;;;4.00;1.65;;;29.30;69.70;;;;;;2603482;46;21023;31
2023/07/06 11:32:14;;;;;;;8.40;1.40;;;29.30;68.20;;;;;;2584919;54;20069;31
2023/07/06 11:35:04;;;;;;;4.20;1.50;;;29.10;68.30;;;;;;2585229;54;20030;31
2023/07/06 11:37:46;;;;;;;2.80;1.40;;;29.10;72.20;;;;;;2585239;54;20086;31
2023/07/06 11:40:41;;;;;;;5.70;1.80;;;29.10;68.70;;;;;;2584803;54;20937;31
2023/07/06 11:43:30;;;;;;;2.95;1.73;;;29.20;69.30;;;;;;2603600;46;20030;31
2023/07/06 11:46:13;;;;;;;4.22;1.58;;;29.10;71.10;;;;;;2585277;54;20119;31
2023/07/06 11:48:54;;;;;;;5.07;1.80;;;29.00;72.20;;;;;;2585079;54;20898;31
2023/07/06 11:51:34;;;;;;;6.10;2.10;;;28.80;69.90;;;;;;2585031;54;20026;31
2023/07/06 11:54:29;;;;;;;3.47;1.70;;;28.60;70.60;;;;;;2585039;54;21132;31
2023/07/06 11:57:24;;;;;;;3.72;1.50;;;28.40;72.20;;;;;;2584849;54;21153;31
2023/07/06 12:00:18;;;;;;;3.97;1.70;;;28.30;72.00;;;;;;2584867;54;20787;31
2023/07/06 12:03:01;;;;;;;2.92;1.67;;;28.20;72.50;;;;;;2585134;54;20033;31
2023/07/06 12:05:39;;;;;;;3.00;1.40;;;28.20;74.50;;;;;;2585128;54;20042;31
2023/07/06 12:08:19;;;;;;;3.13;1.70;;;28.30;73.40;;;;;;2772282;31;21109;31
2023/07/06 12:10:56;;;;;;;3.72;1.95;;;28.50;73.20;;;;;;2585075;54;20796;31
2023/07/06 12:13:37;;;;;;;4.40;1.90;;;28.60;72.80;;;;;;2584685;54;20118;31
2023/07/06 12:16:19;;;;;;;12.50;2.20;;;28.70;72.70;;;;;;2584789;54;20989;31
2023/07/06 12:18:58;;;;;;;3.65;2.00;;;28.70;71.90;;;;;;2584786;54;21071;31
2023/07/06 12:21:38;;;;;;;4.60;1.13;;;28.60;69.20;;;;;;2602504;47;20896;31
2023/07/06 12:24:15;;;;;;;1.85;1.10;;;28.50;67.80;;;;;;2584515;54;20045;31
2023/07/06 12:26:53;;;;;;;6.10;1.50;;;28.50;65.70;;;;;;2584148;54;20046;31
2023/07/06 12:29:31;;;;;;;3.85;1.63;;;28.40;68.60;;;;;;2617040;39;21424;31
2023/07/06 12:32:28;;;;;;;3.97;1.73;;;28.40;69.70;;;;;;2583912;54;20052;31
2023/07/06 12:35:04;;;;;;;7.55;1.75;;;28.40;69.80;;;;;;2584023;54;20902;31
2023/07/06 12:37:41;;;;;;;2.75;1.50;;;28.30;71.50;;;;;;2583701;54;20148;31
2023/07/06 12:40:22;;;;;;;3.40;1.40;;;28.00;69.90;;;;;;2584900;54;19938;31
2023/07/06 12:42:58;;;;;;;3.38;1.52;;;27.90;70.60;;;;;;2584683;54;20026;31
2023/07/06 12:45:35;;;;;;;3.20;1.60;;;27.80;70.70;;;;;;2584997;54;20027;31
2023/07/06 12:48:23;;;;;;;2.38;1.35;;;27.80;68.20;;;;;;2603420;47;20972;31
2023/07/06 12:51:03;;;;;;;3.38;1.63;;;27.90;68.70;;;;;;2585306;54;20870;31
2023/07/06 12:53:39;;;;;;;2.55;1.55;;;27.90;68.00;;;;;;2603888;46;20030;31
2023/07/06 12:56:19;;;;;;;2.72;1.50;;;27.80;70.60;;;;;;2585394;54;20084;31
2023/07/06 12:59:00;;;;;;;3.60;1.50;;;27.70;73.40;;;;;;2603989;46;20036;31
2023/07/06 13:01:45;;;;;;;6.85;1.65;;;27.60;72.50;;;;;;2585508;54;20779;31
2023/07/06 13:04:25;;;;;;;3.00;1.55;;;27.50;72.80;;;;;;2585648;54;20950;31
2023/07/06 13:07:02;;;;;;;2.35;1.33;;;27.40;73.50;;;;;;2603980;46;20891;31
2023/07/06 13:09:38;;;;;;;3.50;1.70;;;27.40;73.90;;;;;;2585296;54;20137;31
2023/07/06 13:12:21;;;;;;;2.20;1.50;;;27.40;73.30;;;;;;2603814;46;20054;31
2023/07/06 13:14:56;;;;;;;3.35;1.35;;;27.50;74.60;;;;;;2585759;54;21842;31
2023/07/06 13:17:32;;;;;;;3.63;1.50;;;27.70;71.50;;;;;;2603889;46;20049;31
2023/07/06 13:20:16;;;;;;;5.00;1.93;;;27.80;73.00;;;;;;2585265;54;20910;31
2023/07/06 13:22:55;;;;;;;3.25;1.55;;;28.00;71.60;;;;;;2585142;54;21217;31
2023/07/06 13:25:30;;;;;;;2.65;1.70;;;28.10;70.60;;;;;;2585031;54;20734;31
2023/07/06 13:28:08;;;;;;;2.75;1.50;;;28.30;70.50;;;;;;2585327;54;21031;31
2023/07/06 13:30:47;;;;;;;5.50;2.17;;;28.30;70.40;;;;;;2585528;54;21000;31
2023/07/06 13:33:21;;;;;;;5.35;1.50;;;28.30;70.20;;;;;;2585056;54;20027;31
2023/07/06 13:36:02;;;;;;;4.23;1.40;;;28.30;70.50;;;;;;2604106;46;20038;31
2023/07/06 13:38:40;;;;;;;3.80;1.60;;;28.20;69.60;;;;;;2585283;54;20955;31
2023/07/06 13:41:18;;;;;;;3.63;1.50;;;28.10;70.10;;;;;;2585605;54;20892;31
2023/07/06 13:43:56;;;;;;;2.17;1.23;;;28.10;71.60;;;;;;2584518;54;20112;31
2023/07/06 13:46:35;;;;;;;4.57;1.40;;;28.00;71.30;;;;;;2594945;46;21323;31
2023/07/06 13:49:14;;;;;;;3.65;1.20;;;28.00;72.10;;;;;;2603993;46;20022;31
2023/07/06 13:51:54;;;;;;;2.38;1.33;;;27.90;70.50;;;;;;2683236;39;20503;31
2023/07/06 13:54:30;;;;;;;2.57;1.37;;;27.80;71.20;;;;;;2584475;54;20082;31
2023/07/06 13:57:07;;;;;;;2.47;1.20;;;27.70;69.70;;;;;;2603592;46;20034;31
2023/07/06 13:59:46;;;;;;;4.22;1.45;;;27.70;70.50;;;;;;2585309;54;20809;31
2023/07/06 14:02:24;;;;;;;6.30;1.42;;;27.60;70.50;;;;;;2604125;46;20927;31
2023/07/06 14:05:00;;;;;;;2.75;1.65;;;27.70;71.40;;;;;;2585228;54;20100;31
2023/07/06 14:07:39;;;;;;;3.65;1.30;;;27.60;70.90;;;;;;2603606;46;20956;31
2023/07/06 14:10:17;;;;;;;2.10;1.52;;;27.60;72.30;;;;;;2600305;46;20049;31
2023/07/06 14:12:49;;;;;;;2.53;1.35;;;27.50;72.80;;;;;;2632593;54;19999;-91
2023/07/06 14:15:23;;;;;;;3.85;1.35;;;27.50;73.30;;;;;;2600429;46;20959;31